createdAt,value
2023-03-31T00:01:14.102Z,100.00
2023-03-31T00:03:44.422Z,100.00
2023-03-31T00:06:18.675Z,100.00
2023-03-31T00:08:51.644Z,100.00
2023-03-31T00:11:22.271Z,100.00
2023-03-31T00:13:50.270Z,100.00
2023-03-31T00:16:18.235Z,99.93
2023-03-31T00:18:47.697Z,100.00
2023-03-31T00:21:34.050Z,100.00
2023-03-31T00:24:07.687Z,100.00
2023-03-31T00:26:36.462Z,100.00
2023-03-31T00:29:06.341Z,100.00
2023-03-31T00:31:35.298Z,100.00
2023-03-31T00:34:03.280Z,100.00
2023-03-31T00:36:31.781Z,100.00
2023-03-31T00:39:02.838Z,100.00
2023-03-31T00:41:30.779Z,100.00
2023-03-31T00:44:13.165Z,100.00
2023-03-31T00:46:57.208Z,100.00
2023-03-31T00:49:28.002Z,100.00
2023-03-31T00:52:02.412Z,100.00
2023-03-31T00:54:33.873Z,100.00
2023-03-31T00:57:07.462Z,100.00
2023-03-31T00:59:41.416Z,100.00
2023-03-31T01:02:12.846Z,100.00
2023-03-31T01:04:46.320Z,100.00
2023-03-31T01:07:44.165Z,100.00
2023-03-31T01:10:13.418Z,100.00
2023-03-31T01:12:44.764Z,100.00
2023-03-31T01:15:13.582Z,100.00
2023-03-31T01:17:44.952Z,100.00
2023-03-31T01:20:22.085Z,100.00
2023-03-31T01:23:11.947Z,100.00
2023-03-31T01:25:58.157Z,100.00
2023-03-31T01:28:32.045Z,100.00
2023-03-31T01:31:12.120Z,100.00
2023-03-31T01:34:04.341Z,100.00
2023-03-31T01:36:51.276Z,100.00
2023-03-31T01:39:43.710Z,99.74
2023-03-31T01:43:10.478Z,99.66
2023-03-31T01:46:01.619Z,100.00
2023-03-31T01:48:42.065Z,99.99
2023-03-31T01:51:34.093Z,100.00
2023-03-31T01:54:05.980Z,100.00
2023-03-31T01:56:53.030Z,99.87
2023-03-31T01:59:33.061Z,99.93
2023-03-31T02:02:14.015Z,100.00
2023-03-31T02:04:48.593Z,99.99
2023-03-31T02:07:30.906Z,99.56
2023-03-31T02:10:04.472Z,100.00
2023-03-31T02:12:34.628Z,99.88
2023-03-31T02:15:07.788Z,99.84
2023-03-31T02:17:40.535Z,99.38
2023-03-31T02:20:13.168Z,99.79
2023-03-31T02:22:46.310Z,99.72
2023-03-31T02:25:20.423Z,99.83
2023-03-31T02:28:01.686Z,99.83
2023-03-31T02:30:37.833Z,99.90
2023-03-31T02:33:06.012Z,100.00
2023-03-31T02:35:35.192Z,99.95
2023-03-31T02:38:03.582Z,99.90
2023-03-31T02:40:31.474Z,99.71
2023-03-31T02:43:00.762Z,99.91
2023-03-31T02:45:46.923Z,100.00
2023-03-31T02:48:22.265Z,99.75
2023-03-31T02:51:03.264Z,100.00
2023-03-31T02:53:40.703Z,99.32
2023-03-31T02:56:24.743Z,99.59
2023-03-31T02:58:55.743Z,99.25
2023-03-31T03:01:55.090Z,99.32
2023-03-31T03:04:39.420Z,99.41
2023-03-31T03:07:49.334Z,99.56
2023-03-31T03:10:46.319Z,99.63
2023-03-31T03:13:51.544Z,99.39
2023-03-31T03:16:33.251Z,99.07
2023-03-31T03:19:05.125Z,98.36
2023-03-31T03:21:33.933Z,99.25
2023-03-31T03:24:01.882Z,99.35
2023-03-31T03:26:29.772Z,99.50
2023-03-31T03:28:58.213Z,99.17
2023-03-31T03:31:26.656Z,98.99
2023-03-31T03:33:54.609Z,99.23
2023-03-31T03:36:23.767Z,99.23
2023-03-31T03:38:51.707Z,99.05
2023-03-31T03:41:19.578Z,99.32
2023-03-31T03:43:47.798Z,99.66
2023-03-31T03:46:15.645Z,99.54
2023-03-31T03:48:43.506Z,99.51
2023-03-31T03:51:11.631Z,99.74
2023-03-31T03:53:39.445Z,99.34
2023-03-31T03:56:07.456Z,99.41
2023-03-31T03:58:36.114Z,99.06
2023-03-31T04:01:04.351Z,99.27
2023-03-31T04:03:32.352Z,99.39
2023-03-31T04:06:00.235Z,99.68
2023-03-31T04:08:28.086Z,99.19
2023-03-31T04:10:55.904Z,99.14
2023-03-31T04:13:23.991Z,99.78
2023-03-31T04:15:51.906Z,99.95
2023-03-31T04:18:25.806Z,99.62
2023-03-31T04:21:06.417Z,99.83
2023-03-31T04:23:42.704Z,99.87
2023-03-31T04:26:10.679Z,99.59
2023-03-31T04:28:42.890Z,99.57
2023-03-31T04:31:15.481Z,99.88
2023-03-31T04:33:46.239Z,100.00
2023-03-31T04:36:18.014Z,99.49
2023-03-31T04:38:51.156Z,99.38
2023-03-31T04:41:19.484Z,99.74
2023-03-31T04:43:47.350Z,100.00
2023-03-31T04:46:15.794Z,100.00
2023-03-31T04:48:43.759Z,100.00
2023-03-31T04:51:11.735Z,99.86
2023-03-31T04:53:39.582Z,100.00
2023-03-31T04:56:08.074Z,99.94
2023-03-31T04:58:36.494Z,100.00
2023-03-31T05:01:08.225Z,100.00
2023-03-31T05:03:36.423Z,100.00
2023-03-31T05:06:04.910Z,99.83
2023-03-31T05:08:34.074Z,99.97
2023-03-31T05:11:04.013Z,99.69
2023-03-31T05:13:31.898Z,99.41
2023-03-31T05:16:09.532Z,99.56
2023-03-31T05:18:38.124Z,99.65
2023-03-31T05:21:17.599Z,99.92
2023-03-31T05:23:46.139Z,100.00
2023-03-31T05:26:15.157Z,99.99
2023-03-31T05:28:43.146Z,100.00
2023-03-31T05:31:13.015Z,100.00
2023-03-31T05:33:42.181Z,100.00
2023-03-31T05:36:13.347Z,100.00
2023-03-31T05:38:42.007Z,100.00
2023-03-31T05:41:11.200Z,100.00
2023-03-31T05:43:39.751Z,100.00
2023-03-31T05:46:08.409Z,100.00
2023-03-31T05:48:38.054Z,100.00
2023-03-31T05:51:06.499Z,100.00
2023-03-31T05:53:35.167Z,100.00
2023-03-31T05:56:07.137Z,100.00
2023-03-31T05:58:36.493Z,100.00
2023-03-31T06:01:19.666Z,100.00
2023-03-31T06:03:47.883Z,100.00
2023-03-31T06:06:16.552Z,100.00
2023-03-31T06:08:46.362Z,100.00
2023-03-31T06:11:17.402Z,100.00
2023-03-31T06:13:45.748Z,100.00
2023-03-31T06:16:15.634Z,100.00
2023-03-31T06:18:43.926Z,100.00
2023-03-31T06:21:16.284Z,100.00
2023-03-31T06:23:45.495Z,100.00
2023-03-31T06:26:16.451Z,100.00
2023-03-31T06:28:46.112Z,100.00
2023-03-31T06:31:16.512Z,100.00
2023-03-31T06:33:45.498Z,100.00
2023-03-31T06:36:16.394Z,100.00
2023-03-31T06:38:45.022Z,100.00
2023-03-31T06:41:14.772Z,100.00
2023-03-31T06:43:42.885Z,100.00
2023-03-31T06:46:11.209Z,100.00
2023-03-31T06:48:39.552Z,100.00
2023-03-31T06:51:09.046Z,100.00
2023-03-31T06:53:37.354Z,100.00
2023-03-31T06:56:06.803Z,100.00
2023-03-31T06:58:35.329Z,100.00
2023-03-31T07:01:06.065Z,100.00
2023-03-31T07:03:34.490Z,100.00
2023-03-31T07:06:02.572Z,100.00
2023-03-31T07:08:30.709Z,100.00
2023-03-31T07:11:00.851Z,100.00
2023-03-31T07:13:29.352Z,100.00
2023-03-31T07:15:57.746Z,100.00
2023-03-31T07:18:34.281Z,100.00
2023-03-31T07:21:07.266Z,100.00
2023-03-31T07:23:37.135Z,99.64
2023-03-31T07:26:06.361Z,100.00
2023-03-31T07:28:34.282Z,100.00
2023-03-31T07:31:02.183Z,100.00
2023-03-31T07:33:30.098Z,100.00
2023-03-31T07:36:10.819Z,100.00
2023-03-31T07:38:42.433Z,100.00
2023-03-31T07:41:12.204Z,100.00
2023-03-31T07:43:40.700Z,100.00
2023-03-31T07:46:18.808Z,100.00
2023-03-31T07:48:47.568Z,100.00
2023-03-31T07:51:17.596Z,100.00
2023-03-31T07:53:46.457Z,100.00
2023-03-31T07:56:14.439Z,100.00
2023-03-31T07:58:42.984Z,100.00
2023-03-31T08:01:16.904Z,100.00
2023-03-31T08:03:46.650Z,100.00
2023-03-31T08:06:19.551Z,100.00
2023-03-31T08:08:48.258Z,100.00
2023-03-31T08:11:17.167Z,100.00
2023-03-31T08:13:45.062Z,100.00
2023-03-31T08:16:13.357Z,100.00
2023-03-31T08:18:41.526Z,100.00
2023-03-31T08:21:10.070Z,99.93
2023-03-31T08:23:37.990Z,99.68
2023-03-31T08:26:11.443Z,99.67
2023-03-31T08:28:39.621Z,99.51
2023-03-31T08:31:08.829Z,99.32
2023-03-31T08:33:37.664Z,99.24
2023-03-31T08:36:09.496Z,99.01
2023-03-31T08:38:41.921Z,99.04
2023-03-31T08:41:41.789Z,98.44
2023-03-31T08:44:39.920Z,98.29
2023-03-31T08:47:19.622Z,97.51
2023-03-31T08:49:59.033Z,96.83
2023-03-31T08:52:33.176Z,97.64
2023-03-31T08:55:06.735Z,97.09
2023-03-31T08:57:41.082Z,97.29
2023-03-31T09:00:18.345Z,96.85
2023-03-31T09:02:48.885Z,97.52
2023-03-31T09:06:00.545Z,99.17
2023-03-31T09:08:44.812Z,99.58
2023-03-31T09:11:34.494Z,98.90
2023-03-31T09:14:16.373Z,98.79
2023-03-31T09:16:56.204Z,98.19
2023-03-31T09:20:08.031Z,97.46
2023-03-31T09:22:41.830Z,97.24
2023-03-31T09:25:21.295Z,97.04
2023-03-31T09:27:52.755Z,95.58
2023-03-31T09:30:32.390Z,95.65
2023-03-31T09:33:20.349Z,95.02
2023-03-31T09:35:50.027Z,95.69
2023-03-31T09:38:20.326Z,94.41
2023-03-31T09:40:48.467Z,94.46
2023-03-31T09:43:23.993Z,95.18
2023-03-31T09:46:08.499Z,96.25
2023-03-31T09:48:39.700Z,95.62
2023-03-31T09:51:18.897Z,95.10
2023-03-31T09:53:56.998Z,96.99
2023-03-31T09:56:47.409Z,98.07
2023-03-31T09:59:20.825Z,99.34
2023-03-31T10:01:53.950Z,98.75
2023-03-31T10:04:28.352Z,97.81
2023-03-31T10:06:57.381Z,97.34
2023-03-31T10:09:28.453Z,98.25
2023-03-31T10:12:31.091Z,97.69
2023-03-31T10:15:22.074Z,97.39
2023-03-31T10:20:43.997Z,93.17
2023-03-31T10:23:24.857Z,93.93
2023-03-31T10:25:53.925Z,92.84
2023-03-31T10:28:22.928Z,90.91
2023-03-31T10:30:57.855Z,90.27
2023-03-31T10:33:28.447Z,89.44
2023-03-31T10:36:01.807Z,87.87
2023-03-31T10:38:37.697Z,88.16
2023-03-31T10:41:06.390Z,88.97
2023-03-31T10:43:38.778Z,90.98
2023-03-31T10:46:06.985Z,92.66
2023-03-31T10:48:41.465Z,91.77
2023-03-31T10:51:22.322Z,89.39
2023-03-31T10:53:53.183Z,88.76
2023-03-31T10:56:37.530Z,89.56
2023-03-31T10:59:28.308Z,89.48
2023-03-31T11:02:00.745Z,91.50
2023-03-31T11:04:48.413Z,90.01
2023-03-31T11:07:27.425Z,90.82
2023-03-31T11:10:26.310Z,91.97
2023-03-31T11:13:19.958Z,91.81
2023-03-31T11:16:16.320Z,89.47
2023-03-31T11:19:22.178Z,89.00
2023-03-31T11:22:04.969Z,89.37
2023-03-31T11:24:51.093Z,89.32
2023-03-31T11:27:31.471Z,88.76
2023-03-31T11:30:31.748Z,86.90
2023-03-31T11:33:18.136Z,83.81
2023-03-31T11:36:37.036Z,84.94
2023-03-31T11:39:11.122Z,83.21
2023-03-31T11:41:49.943Z,81.93
2023-03-31T11:44:20.040Z,82.55
2023-03-31T11:47:06.579Z,81.82
2023-03-31T11:49:39.889Z,82.26
2023-03-31T11:52:22.411Z,80.92
2023-03-31T11:55:03.233Z,79.98
2023-03-31T11:58:11.582Z,78.64
2023-03-31T12:00:45.307Z,78.13
2023-03-31T12:03:35.013Z,77.69
2023-03-31T12:06:17.673Z,76.17
2023-03-31T12:09:08.202Z,79.53
2023-03-31T12:11:42.040Z,80.30
2023-03-31T12:14:41.990Z,78.49
2023-03-31T12:17:20.730Z,77.62
2023-03-31T12:20:10.703Z,78.48
2023-03-31T12:22:43.735Z,78.36
2023-03-31T12:25:18.740Z,78.93
2023-03-31T12:27:54.738Z,79.02
2023-03-31T12:30:35.093Z,81.85
2023-03-31T12:33:07.668Z,80.56
2023-03-31T12:36:21.497Z,79.12
2023-03-31T12:39:02.171Z,78.35
2023-03-31T12:41:58.249Z,76.79
2023-03-31T12:44:44.624Z,77.98
2023-03-31T12:47:43.376Z,77.99
2023-03-31T12:50:20.142Z,77.19
2023-03-31T12:53:10.321Z,77.92
2023-03-31T12:55:41.372Z,77.20
2023-03-31T12:58:32.958Z,77.19
2023-03-31T13:01:07.705Z,77.76
2023-03-31T13:03:35.909Z,77.75
2023-03-31T13:06:04.358Z,77.73
2023-03-31T13:08:58.230Z,77.63
2023-03-31T13:11:36.473Z,78.67
2023-03-31T13:14:14.642Z,78.08
2023-03-31T13:16:43.129Z,79.76
2023-03-31T13:19:26.036Z,79.48
2023-03-31T13:21:56.218Z,79.30
2023-03-31T13:24:26.304Z,79.90
2023-03-31T13:26:59.689Z,79.66
2023-03-31T13:29:44.044Z,78.03
2023-03-31T13:32:22.450Z,78.09
2023-03-31T13:35:00.531Z,80.06
2023-03-31T13:37:30.921Z,84.67
2023-03-31T13:40:21.425Z,88.50
2023-03-31T13:42:52.441Z,94.78
2023-03-31T13:45:20.570Z,98.59
2023-03-31T13:47:53.693Z,100.00
2023-03-31T13:50:36.144Z,100.00
2023-03-31T13:53:16.448Z,100.00
2023-03-31T13:56:14.514Z,100.00
2023-03-31T13:59:29.155Z,100.00
2023-03-31T14:02:15.831Z,100.00
2023-03-31T14:05:05.802Z,100.00
2023-03-31T14:08:05.962Z,100.00
2023-03-31T14:10:37.169Z,100.00
2023-03-31T14:13:07.691Z,100.00
2023-03-31T14:15:44.089Z,100.00
2023-03-31T14:18:17.256Z,100.00
2023-03-31T14:21:22.603Z,100.00
2023-03-31T14:24:19.802Z,100.00
2023-03-31T14:26:58.292Z,100.00
2023-03-31T14:29:36.433Z,100.00
2023-03-31T14:32:07.199Z,100.00
2023-03-31T14:34:46.009Z,100.00
2023-03-31T14:37:17.944Z,100.00
2023-03-31T14:39:54.081Z,100.00
2023-03-31T14:42:42.476Z,100.00
2023-03-31T14:45:20.774Z,100.00
2023-03-31T14:48:13.620Z,100.00
2023-03-31T14:50:46.572Z,100.00
2023-03-31T14:53:16.682Z,100.00
2023-03-31T14:55:58.047Z,100.00
2023-03-31T14:58:32.157Z,100.00
2023-03-31T15:01:06.958Z,100.00
2023-03-31T15:03:41.664Z,100.00
2023-03-31T15:06:12.074Z,100.00
2023-03-31T15:08:40.700Z,100.00
2023-03-31T15:11:16.543Z,100.00
2023-03-31T15:14:01.086Z,100.00
2023-03-31T15:16:50.356Z,100.00
2023-03-31T15:19:24.919Z,100.00
2023-03-31T15:22:21.399Z,100.00
2023-03-31T15:24:49.470Z,100.00
2023-03-31T15:30:24.260Z,100.00
2023-03-31T15:32:56.902Z,100.00
2023-03-31T15:35:35.092Z,100.00
2023-03-31T15:38:05.877Z,100.00
2023-03-31T15:40:40.365Z,100.00
2023-03-31T15:45:53.597Z,100.00
2023-03-31T15:48:22.846Z,100.00
2023-03-31T15:50:51.854Z,100.00
2023-03-31T15:53:28.534Z,100.00
2023-03-31T15:56:00.086Z,100.00
2023-03-31T15:58:48.454Z,100.00
2023-03-31T16:01:17.663Z,100.00
2023-03-31T16:03:45.809Z,100.00
2023-03-31T16:06:22.098Z,100.00
2023-03-31T16:08:59.213Z,100.00
2023-03-31T16:11:40.295Z,100.00
2023-03-31T16:14:18.336Z,100.00
2023-03-31T16:16:50.859Z,100.00
2023-03-31T16:19:22.384Z,98.96
2023-03-31T16:21:55.041Z,99.34
2023-03-31T16:24:30.550Z,100.00
2023-03-31T16:27:06.841Z,98.91
2023-03-31T16:29:37.223Z,98.99
2023-03-31T16:32:19.510Z,99.26
2023-03-31T16:34:53.551Z,98.79
2023-03-31T16:37:22.062Z,100.00
2023-03-31T16:39:49.935Z,100.00
2023-03-31T16:42:19.283Z,100.00
2023-03-31T16:44:52.912Z,99.51
2023-03-31T16:47:35.225Z,99.80
2023-03-31T16:50:07.348Z,100.00
2023-03-31T16:52:36.936Z,100.00
2023-03-31T16:55:05.481Z,99.35
2023-03-31T16:57:33.575Z,99.09
2023-03-31T17:00:01.839Z,98.35
2023-03-31T17:02:29.905Z,97.13
2023-03-31T17:05:06.256Z,97.62
2023-03-31T17:07:40.848Z,96.97
2023-03-31T17:10:09.342Z,97.02
2023-03-31T17:12:37.210Z,96.96
2023-03-31T17:15:05.614Z,96.74
2023-03-31T17:17:33.759Z,96.66
2023-03-31T17:20:01.667Z,96.98
2023-03-31T17:22:29.593Z,96.27
2023-03-31T17:24:58.485Z,95.77
2023-03-31T17:27:28.248Z,95.74
2023-03-31T17:29:56.618Z,96.19
2023-03-31T17:32:24.907Z,98.34
2023-03-31T17:34:53.390Z,97.11
2023-03-31T17:37:21.479Z,98.09
2023-03-31T17:39:51.164Z,98.19
2023-03-31T17:42:20.353Z,97.49
2023-03-31T17:44:50.220Z,97.82
2023-03-31T17:47:19.099Z,96.57
2023-03-31T17:49:47.444Z,93.68
2023-03-31T17:52:15.325Z,93.26
2023-03-31T17:54:43.554Z,91.66
2023-03-31T17:57:11.473Z,87.64
2023-03-31T17:59:39.373Z,88.25
2023-03-31T18:02:07.305Z,88.21
2023-03-31T18:04:36.451Z,88.66
2023-03-31T18:07:04.347Z,87.41
2023-03-31T18:09:32.422Z,87.61
2023-03-31T18:12:00.612Z,87.41
2023-03-31T18:14:28.596Z,86.97
2023-03-31T18:16:57.835Z,87.47
2023-03-31T18:19:25.697Z,89.05
2023-03-31T18:21:53.539Z,91.46
2023-03-31T18:24:22.646Z,91.39
2023-03-31T18:26:50.513Z,92.47
2023-03-31T18:29:18.416Z,93.08
2023-03-31T18:31:46.483Z,93.40
2023-03-31T18:34:16.302Z,94.92
2023-03-31T18:36:46.215Z,94.97
2023-03-31T18:39:14.356Z,97.00
2023-03-31T18:41:46.304Z,97.34
2023-03-31T18:44:16.762Z,97.12
2023-03-31T18:46:45.799Z,97.95
2023-03-31T18:49:14.554Z,97.27
2023-03-31T18:51:42.642Z,96.79
2023-03-31T18:54:10.557Z,98.06
2023-03-31T18:56:38.427Z,97.46
2023-03-31T18:59:06.385Z,96.76
2023-03-31T19:01:37.329Z,96.87
2023-03-31T19:04:05.389Z,97.00
2023-03-31T19:06:33.691Z,97.29
2023-03-31T19:09:01.567Z,92.59
2023-03-31T19:11:29.449Z,92.32
2023-03-31T19:13:57.532Z,90.25
2023-03-31T19:16:27.195Z,88.19
2023-03-31T19:18:56.470Z,90.10
2023-03-31T19:21:25.676Z,91.90
2023-03-31T19:23:53.492Z,92.23
2023-03-31T19:26:22.759Z,93.62
2023-03-31T19:28:50.716Z,93.71
2023-03-31T19:31:18.680Z,94.79
2023-03-31T19:33:46.594Z,94.35
2023-03-31T19:36:15.463Z,94.27
2023-03-31T19:38:44.183Z,94.25
2023-03-31T19:41:13.244Z,95.41
2023-03-31T19:43:41.525Z,93.90
2023-03-31T19:46:09.691Z,92.61
2023-03-31T19:48:37.644Z,91.36
2023-03-31T19:51:06.304Z,91.60
2023-03-31T19:53:36.812Z,91.47
2023-03-31T19:56:10.489Z,91.23
2023-03-31T19:58:39.103Z,90.88
2023-03-31T20:01:19.793Z,90.12
2023-03-31T20:03:52.906Z,89.98
2023-03-31T20:06:23.878Z,90.97
2023-03-31T20:08:54.207Z,92.13
2023-03-31T20:11:22.676Z,91.80
2023-03-31T20:13:50.547Z,90.67
2023-03-31T20:16:20.884Z,89.60
2023-03-31T20:18:56.739Z,90.51
2023-03-31T20:21:27.244Z,90.64
2023-03-31T20:23:55.563Z,90.54
2023-03-31T20:26:32.497Z,89.88
2023-03-31T20:29:02.707Z,91.57
2023-03-31T20:31:34.116Z,92.87
2023-03-31T20:34:02.198Z,91.90
2023-03-31T20:36:31.661Z,92.36
2023-03-31T20:39:03.005Z,91.39
2023-03-31T20:41:31.791Z,90.87
2023-03-31T20:44:00.764Z,92.43
2023-03-31T20:46:29.482Z,93.56
2023-03-31T20:48:58.231Z,92.66
2023-03-31T20:51:29.251Z,89.47
2023-03-31T20:53:58.570Z,86.99
2023-03-31T20:56:29.344Z,85.60
2023-03-31T20:58:59.087Z,87.49
2023-03-31T21:01:30.945Z,86.32
2023-03-31T21:04:01.240Z,85.20
2023-03-31T21:06:36.429Z,87.46
2023-03-31T21:09:04.711Z,86.92
2023-03-31T21:11:33.126Z,84.77
2023-03-31T21:14:01.396Z,84.64
2023-03-31T21:16:29.269Z,84.59
2023-03-31T21:18:59.844Z,85.14
2023-03-31T21:21:29.019Z,85.82
2023-03-31T21:23:57.065Z,87.30
2023-03-31T21:26:25.655Z,86.66
2023-03-31T21:28:54.469Z,86.59
2023-03-31T21:31:24.656Z,88.24
2023-03-31T21:33:57.803Z,89.09
2023-03-31T21:36:26.800Z,90.76
2023-03-31T21:38:57.404Z,91.26
2023-03-31T21:41:28.800Z,91.55
2023-03-31T21:44:00.488Z,92.42
2023-03-31T21:46:33.072Z,92.79
2023-03-31T21:49:01.335Z,92.12
2023-03-31T21:51:29.299Z,92.27
2023-03-31T21:53:57.892Z,93.66
2023-03-31T21:56:28.183Z,94.19
2023-03-31T21:58:57.038Z,93.54
2023-03-31T22:01:25.229Z,92.69
2023-03-31T22:03:53.335Z,90.94
2023-03-31T22:06:22.430Z,91.43
2023-03-31T22:08:50.892Z,86.76
2023-03-31T22:11:19.455Z,85.24
2023-03-31T22:13:47.953Z,84.54
2023-03-31T22:16:21.135Z,82.88
2023-03-31T22:18:50.670Z,82.67
2023-03-31T22:21:24.145Z,82.83
2023-03-31T22:23:53.793Z,83.96
2023-03-31T22:26:23.041Z,83.08
2023-03-31T22:28:51.059Z,83.93
2023-03-31T22:31:19.991Z,84.19
2023-03-31T22:33:48.081Z,82.74
2023-03-31T22:36:16.159Z,83.41
2023-03-31T22:38:44.059Z,84.65
2023-03-31T22:41:11.932Z,84.95
2023-03-31T22:43:40.071Z,86.73
2023-03-31T22:46:08.510Z,86.42
2023-03-31T22:48:36.313Z,85.40
2023-03-31T22:51:08.871Z,84.58
2023-03-31T22:53:36.900Z,84.25
2023-03-31T22:56:08.482Z,84.83
2023-03-31T22:58:36.378Z,84.17
2023-03-31T23:01:06.808Z,83.75
2023-03-31T23:03:34.984Z,82.67
2023-03-31T23:06:06.698Z,82.06
2023-03-31T23:08:36.989Z,82.81
2023-03-31T23:11:07.613Z,81.72
2023-03-31T23:13:36.034Z,81.94
2023-03-31T23:16:17.098Z,81.07
2023-03-31T23:18:46.981Z,81.82
2023-03-31T23:21:19.384Z,82.49
2023-03-31T23:23:47.452Z,83.70
2023-03-31T23:26:15.905Z,82.90
2023-03-31T23:28:45.458Z,82.26
2023-03-31T23:31:13.416Z,84.07
2023-03-31T23:33:41.544Z,84.08
2023-03-31T23:36:09.645Z,84.51
2023-03-31T23:38:37.542Z,86.96
2023-03-31T23:41:05.386Z,85.75
2023-03-31T23:43:33.228Z,83.91
2023-03-31T23:46:02.925Z,84.09
2023-03-31T23:48:31.205Z,85.09
2023-03-31T23:50:59.096Z,84.11
2023-03-31T23:53:27.332Z,85.98
2023-03-31T23:56:00.106Z,84.32
2023-03-31T23:58:27.982Z,86.06
